sensor_id;sensor_type;location;lat;lon;timestamp;temperature;humidity
52181;DHT22;38158;53.338;6.514;2024-02-26T00:02:18;2.40;99.90
52181;DHT22;38158;53.338;6.514;2024-02-26T00:04:43;2.50;99.90
52181;DHT22;38158;53.338;6.514;2024-02-26T00:07:09;2.50;99.90
52181;DHT22;38158;53.338;6.514;2024-02-26T00:09:35;2.50;99.90
52181;DHT22;38158;53.338;6.514;2024-02-26T00:12:03;2.40;99.90
52181;DHT22;38158;53.338;6.514;2024-02-26T00:14:30;2.40;99.90
52181;DHT22;38158;53.338;6.514;2024-02-26T00:16:55;3.70;99.90
52181;DHT22;38158;53.338;6.514;2024-02-26T00:19:21;2.30;99.90
52181;DHT22;38158;53.338;6.514;2024-02-26T00:21:47;2.30;99.90
52181;DHT22;38158;53.338;6.514;2024-02-26T00:24:12;2.30;99.90
52181;DHT22;38158;53.338;6.514;2024-02-26T00:26:38;2.60;99.90
52181;DHT22;38158;53.338;6.514;2024-02-26T00:29:04;3.90;99.90
52181;DHT22;38158;53.338;6.514;2024-02-26T00:31:30;2.80;99.90
52181;DHT22;38158;53.338;6.514;2024-02-26T00:33:56;2.80;99.90
52181;DHT22;38158;53.338;6.514;2024-02-26T00:36:21;3.20;99.90
52181;DHT22;38158;53.338;6.514;2024-02-26T00:38:47;2.20;99.90
52181;DHT22;38158;53.338;6.514;2024-02-26T00:41:17;2.20;99.90
52181;DHT22;38158;53.338;6.514;2024-02-26T00:43:43;2.20;99.90
52181;DHT22;38158;53.338;6.514;2024-02-26T00:46:08;2.20;99.90
52181;DHT22;38158;53.338;6.514;2024-02-26T00:48:35;2.20;99.90
52181;DHT22;38158;53.338;6.514;2024-02-26T00:51:00;2.20;99.90
52181;DHT22;38158;53.338;6.514;2024-02-26T00:53:26;3.20;99.90
52181;DHT22;38158;53.338;6.514;2024-02-26T00:55:52;2.20;99.90
52181;DHT22;38158;53.338;6.514;2024-02-26T00:58:17;2.80;99.90
52181;DHT22;38158;53.338;6.514;2024-02-26T01:00:44;2.20;99.90
52181;DHT22;38158;53.338;6.514;2024-02-26T01:03:10;2.30;99.90
52181;DHT22;38158;53.338;6.514;2024-02-26T01:05:36;2.20;99.90
52181;DHT22;38158;53.338;6.514;2024-02-26T01:08:03;2.20;99.90
52181;DHT22;38158;53.338;6.514;2024-02-26T01:10:29;2.30;99.90
52181;DHT22;38158;53.338;6.514;2024-02-26T01:12:55;2.30;99.90
52181;DHT22;38158;53.338;6.514;2024-02-26T01:15:20;2.30;99.90
52181;DHT22;38158;53.338;6.514;2024-02-26T01:17:49;2.30;99.90
52181;DHT22;38158;53.338;6.514;2024-02-26T01:20:16;2.60;99.90
52181;DHT22;38158;53.338;6.514;2024-02-26T01:22:42;2.30;99.90
52181;DHT22;38158;53.338;6.514;2024-02-26T01:25:08;3.70;99.90
52181;DHT22;38158;53.338;6.514;2024-02-26T01:27:37;2.20;99.90
52181;DHT22;38158;53.338;6.514;2024-02-26T01:30:04;2.20;99.90
52181;DHT22;38158;53.338;6.514;2024-02-26T01:32:30;2.10;99.90
52181;DHT22;38158;53.338;6.514;2024-02-26T01:34:56;2.10;99.90
52181;DHT22;38158;53.338;6.514;2024-02-26T01:37:22;2.20;99.90
52181;DHT22;38158;53.338;6.514;2024-02-26T01:39:47;2.20;99.90
52181;DHT22;38158;53.338;6.514;2024-02-26T01:42:13;3.90;99.90
52181;DHT22;38158;53.338;6.514;2024-02-26T01:44:39;2.10;99.90
52181;DHT22;38158;53.338;6.514;2024-02-26T01:47:07;2.10;99.90
52181;DHT22;38158;53.338;6.514;2024-02-26T01:49:34;2.10;99.90
52181;DHT22;38158;53.338;6.514;2024-02-26T01:52:01;2.00;99.90
52181;DHT22;38158;53.338;6.514;2024-02-26T01:54:27;2.00;99.90
52181;DHT22;38158;53.338;6.514;2024-02-26T01:56:53;3.20;99.90
52181;DHT22;38158;53.338;6.514;2024-02-26T01:59:19;2.50;99.90
52181;DHT22;38158;53.338;6.514;2024-02-26T02:01:48;1.90;99.90
52181;DHT22;38158;53.338;6.514;2024-02-26T02:04:15;1.90;99.90
52181;DHT22;38158;53.338;6.514;2024-02-26T02:06:41;1.90;99.90
52181;DHT22;38158;53.338;6.514;2024-02-26T02:09:08;1.90;99.90
52181;DHT22;38158;53.338;6.514;2024-02-26T02:11:34;1.80;99.90
52181;DHT22;38158;53.338;6.514;2024-02-26T02:14:00;1.90;99.90
52181;DHT22;38158;53.338;6.514;2024-02-26T02:16:25;1.80;99.90
52181;DHT22;38158;53.338;6.514;2024-02-26T02:18:51;1.80;99.90
52181;DHT22;38158;53.338;6.514;2024-02-26T02:21:18;2.70;99.90
52181;DHT22;38158;53.338;6.514;2024-02-26T02:23:43;1.90;99.90
52181;DHT22;38158;53.338;6.514;2024-02-26T02:26:13;1.90;99.90
52181;DHT22;38158;53.338;6.514;2024-02-26T02:28:39;1.90;99.90
52181;DHT22;38158;53.338;6.514;2024-02-26T02:31:05;1.90;99.90
52181;DHT22;38158;53.338;6.514;2024-02-26T02:33:32;2.00;99.90
52181;DHT22;38158;53.338;6.514;2024-02-26T02:35:58;1.90;99.90
52181;DHT22;38158;53.338;6.514;2024-02-26T02:38:24;1.90;99.90
52181;DHT22;38158;53.338;6.514;2024-02-26T02:40:51;1.90;99.90
52181;DHT22;38158;53.338;6.514;2024-02-26T02:43:17;2.70;99.90
52181;DHT22;38158;53.338;6.514;2024-02-26T02:45:43;1.90;99.90
52181;DHT22;38158;53.338;6.514;2024-02-26T02:48:09;1.80;99.90
52181;DHT22;38158;53.338;6.514;2024-02-26T02:50:35;1.80;99.90
52181;DHT22;38158;53.338;6.514;2024-02-26T02:53:01;1.90;99.90
52181;DHT22;38158;53.338;6.514;2024-02-26T02:55:27;2.10;99.90
52181;DHT22;38158;53.338;6.514;2024-02-26T02:57:53;1.80;99.90
52181;DHT22;38158;53.338;6.514;2024-02-26T03:00:19;1.80;99.90
52181;DHT22;38158;53.338;6.514;2024-02-26T03:02:45;1.80;99.90
52181;DHT22;38158;53.338;6.514;2024-02-26T03:05:11;1.90;99.90
52181;DHT22;38158;53.338;6.514;2024-02-26T03:07:37;2.30;99.90
52181;DHT22;38158;53.338;6.514;2024-02-26T03:10:03;1.90;99.90
52181;DHT22;38158;53.338;6.514;2024-02-26T03:12:30;1.90;99.90
52181;DHT22;38158;53.338;6.514;2024-02-26T03:14:55;2.00;99.90
52181;DHT22;38158;53.338;6.514;2024-02-26T03:17:21;2.50;99.90
52181;DHT22;38158;53.338;6.514;2024-02-26T03:19:49;2.50;99.90
52181;DHT22;38158;53.338;6.514;2024-02-26T03:22:19;3.20;99.90
52181;DHT22;38158;53.338;6.514;2024-02-26T03:24:45;2.00;99.90
52181;DHT22;38158;53.338;6.514;2024-02-26T03:27:10;1.90;99.90
52181;DHT22;38158;53.338;6.514;2024-02-26T03:29:37;1.90;99.90
52181;DHT22;38158;53.338;6.514;2024-02-26T03:32:03;3.10;99.90
52181;DHT22;38158;53.338;6.514;2024-02-26T03:34:29;1.90;99.90
52181;DHT22;38158;53.338;6.514;2024-02-26T03:36:56;1.90;99.90
52181;DHT22;38158;53.338;6.514;2024-02-26T03:39:22;1.90;99.90
52181;DHT22;38158;53.338;6.514;2024-02-26T03:41:48;1.90;99.90
52181;DHT22;38158;53.338;6.514;2024-02-26T03:44:14;3.10;99.90
52181;DHT22;38158;53.338;6.514;2024-02-26T03:46:40;2.00;99.90
52181;DHT22;38158;53.338;6.514;2024-02-26T03:49:08;2.00;99.90
52181;DHT22;38158;53.338;6.514;2024-02-26T03:51:34;2.00;99.90
52181;DHT22;38158;53.338;6.514;2024-02-26T03:54:00;4.70;99.90
52181;DHT22;38158;53.338;6.514;2024-02-26T03:56:26;2.30;99.90
52181;DHT22;38158;53.338;6.514;2024-02-26T03:58:52;2.40;99.90
52181;DHT22;38158;53.338;6.514;2024-02-26T04:01:18;2.50;99.90
52181;DHT22;38158;53.338;6.514;2024-02-26T04:03:43;3.40;99.90
52181;DHT22;38158;53.338;6.514;2024-02-26T04:06:10;2.50;99.90
52181;DHT22;38158;53.338;6.514;2024-02-26T04:08:46;2.50;99.90
52181;DHT22;38158;53.338;6.514;2024-02-26T04:11:12;2.50;99.90
52181;DHT22;38158;53.338;6.514;2024-02-26T04:13:38;2.90;99.90
52181;DHT22;38158;53.338;6.514;2024-02-26T04:16:05;3.20;99.90
52181;DHT22;38158;53.338;6.514;2024-02-26T04:18:32;2.70;99.90
52181;DHT22;38158;53.338;6.514;2024-02-26T04:20:57;4.10;99.90
52181;DHT22;38158;53.338;6.514;2024-02-26T04:23:24;3.50;99.90
52181;DHT22;38158;53.338;6.514;2024-02-26T04:25:49;4.10;99.90
52181;DHT22;38158;53.338;6.514;2024-02-26T04:28:15;2.70;99.90
52181;DHT22;38158;53.338;6.514;2024-02-26T04:30:41;2.70;99.90
52181;DHT22;38158;53.338;6.514;2024-02-26T04:33:06;2.70;99.90
52181;DHT22;38158;53.338;6.514;2024-02-26T04:35:32;2.70;99.90
52181;DHT22;38158;53.338;6.514;2024-02-26T04:37:58;2.70;99.90
52181;DHT22;38158;53.338;6.514;2024-02-26T04:40:24;3.60;99.90
52181;DHT22;38158;53.338;6.514;2024-02-26T04:42:49;3.70;99.90
52181;DHT22;38158;53.338;6.514;2024-02-26T04:45:15;2.80;99.90
52181;DHT22;38158;53.338;6.514;2024-02-26T04:47:41;2.90;99.90
52181;DHT22;38158;53.338;6.514;2024-02-26T04:50:07;2.90;99.90
52181;DHT22;38158;53.338;6.514;2024-02-26T04:52:33;2.90;99.90
52181;DHT22;38158;53.338;6.514;2024-02-26T04:54:59;3.00;99.90
52181;DHT22;38158;53.338;6.514;2024-02-26T04:57:25;3.10;99.90
52181;DHT22;38158;53.338;6.514;2024-02-26T04:59:51;3.10;99.90
52181;DHT22;38158;53.338;6.514;2024-02-26T05:02:17;3.10;99.90
52181;DHT22;38158;53.338;6.514;2024-02-26T05:04:43;3.60;99.90
52181;DHT22;38158;53.338;6.514;2024-02-26T05:07:09;3.10;99.90
52181;DHT22;38158;53.338;6.514;2024-02-26T05:09:35;3.10;99.90
52181;DHT22;38158;53.338;6.514;2024-02-26T05:12:01;3.20;99.90
52181;DHT22;38158;53.338;6.514;2024-02-26T05:14:27;3.10;99.90
52181;DHT22;38158;53.338;6.514;2024-02-26T05:16:52;3.70;99.90
52181;DHT22;38158;53.338;6.514;2024-02-26T05:19:18;4.10;99.90
52181;DHT22;38158;53.338;6.514;2024-02-26T05:21:44;3.20;99.90
52181;DHT22;38158;53.338;6.514;2024-02-26T05:24:10;3.20;99.90
52181;DHT22;38158;53.338;6.514;2024-02-26T05:26:35;4.70;99.90
52181;DHT22;38158;53.338;6.514;2024-02-26T05:29:01;3.90;99.90
52181;DHT22;38158;53.338;6.514;2024-02-26T05:31:28;3.20;99.90
52181;DHT22;38158;53.338;6.514;2024-02-26T05:33:54;3.20;99.90
52181;DHT22;38158;53.338;6.514;2024-02-26T05:36:23;3.20;99.90
52181;DHT22;38158;53.338;6.514;2024-02-26T05:38:49;3.20;99.90
52181;DHT22;38158;53.338;6.514;2024-02-26T05:41:16;3.10;99.90
52181;DHT22;38158;53.338;6.514;2024-02-26T05:43:42;3.10;99.90
52181;DHT22;38158;53.338;6.514;2024-02-26T05:46:08;3.10;99.90
52181;DHT22;38158;53.338;6.514;2024-02-26T05:48:34;3.00;99.90
52181;DHT22;38158;53.338;6.514;2024-02-26T05:51:03;3.00;99.90
52181;DHT22;38158;53.338;6.514;2024-02-26T05:53:29;3.10;99.90
52181;DHT22;38158;53.338;6.514;2024-02-26T05:55:55;2.40;99.90
52181;DHT22;38158;53.338;6.514;2024-02-26T05:58:20;3.10;99.90
52181;DHT22;38158;53.338;6.514;2024-02-26T06:00:46;3.10;99.90
52181;DHT22;38158;53.338;6.514;2024-02-26T06:03:12;3.20;99.90
52181;DHT22;38158;53.338;6.514;2024-02-26T06:05:37;3.20;99.90
52181;DHT22;38158;53.338;6.514;2024-02-26T06:08:03;3.20;99.90
52181;DHT22;38158;53.338;6.514;2024-02-26T06:10:29;3.20;99.90
52181;DHT22;38158;53.338;6.514;2024-02-26T06:12:54;3.20;99.90
52181;DHT22;38158;53.338;6.514;2024-02-26T06:15:20;4.10;99.90
52181;DHT22;38158;53.338;6.514;2024-02-26T06:17:46;3.70;99.90
52181;DHT22;38158;53.338;6.514;2024-02-26T06:20:11;3.30;99.90
52181;DHT22;38158;53.338;6.514;2024-02-26T06:22:40;3.30;99.90
52181;DHT22;38158;53.338;6.514;2024-02-26T06:25:07;3.30;99.90
52181;DHT22;38158;53.338;6.514;2024-02-26T06:27:33;3.40;99.90
52181;DHT22;38158;53.338;6.514;2024-02-26T06:29:59;3.40;99.90
52181;DHT22;38158;53.338;6.514;2024-02-26T06:32:25;3.40;99.90
52181;DHT22;38158;53.338;6.514;2024-02-26T06:34:53;3.40;99.90
52181;DHT22;38158;53.338;6.514;2024-02-26T06:37:19;3.40;99.90
52181;DHT22;38158;53.338;6.514;2024-02-26T06:39:44;3.70;99.90
52181;DHT22;38158;53.338;6.514;2024-02-26T06:42:10;3.40;99.90
52181;DHT22;38158;53.338;6.514;2024-02-26T06:44:35;4.00;99.90
52181;DHT22;38158;53.338;6.514;2024-02-26T06:47:01;4.10;99.90
52181;DHT22;38158;53.338;6.514;2024-02-26T06:49:29;3.80;99.90
52181;DHT22;38158;53.338;6.514;2024-02-26T06:51:54;3.40;99.90
52181;DHT22;38158;53.338;6.514;2024-02-26T06:54:20;4.00;99.90
52181;DHT22;38158;53.338;6.514;2024-02-26T06:56:46;3.40;99.90
52181;DHT22;38158;53.338;6.514;2024-02-26T06:59:12;3.40;99.90
52181;DHT22;38158;53.338;6.514;2024-02-26T07:01:40;3.40;99.90
52181;DHT22;38158;53.338;6.514;2024-02-26T07:04:06;3.40;99.90
52181;DHT22;38158;53.338;6.514;2024-02-26T07:06:32;5.50;99.90
52181;DHT22;38158;53.338;6.514;2024-02-26T07:08:57;3.50;99.90
52181;DHT22;38158;53.338;6.514;2024-02-26T07:11:23;3.50;99.90
52181;DHT22;38158;53.338;6.514;2024-02-26T07:13:48;3.50;99.90
52181;DHT22;38158;53.338;6.514;2024-02-26T07:16:15;3.40;99.90
52181;DHT22;38158;53.338;6.514;2024-02-26T07:18:41;4.50;99.90
52181;DHT22;38158;53.338;6.514;2024-02-26T07:21:07;3.90;99.90
52181;DHT22;38158;53.338;6.514;2024-02-26T07:23:33;3.60;99.90
52181;DHT22;38158;53.338;6.514;2024-02-26T07:26:01;3.50;99.90
52181;DHT22;38158;53.338;6.514;2024-02-26T07:28:27;3.50;99.90
52181;DHT22;38158;53.338;6.514;2024-02-26T07:30:53;3.50;99.90
52181;DHT22;38158;53.338;6.514;2024-02-26T07:33:18;3.60;99.90
52181;DHT22;38158;53.338;6.514;2024-02-26T07:35:45;3.60;99.90
52181;DHT22;38158;53.338;6.514;2024-02-26T07:38:11;3.60;99.90
52181;DHT22;38158;53.338;6.514;2024-02-26T07:40:38;4.80;99.90
52181;DHT22;38158;53.338;6.514;2024-02-26T07:43:04;3.60;99.90
52181;DHT22;38158;53.338;6.514;2024-02-26T07:45:30;3.60;99.90
52181;DHT22;38158;53.338;6.514;2024-02-26T07:47:55;3.60;99.90
52181;DHT22;38158;53.338;6.514;2024-02-26T07:50:21;3.60;99.90
52181;DHT22;38158;53.338;6.514;2024-02-26T07:52:47;4.70;99.90
52181;DHT22;38158;53.338;6.514;2024-02-26T07:55:12;3.60;99.90
52181;DHT22;38158;53.338;6.514;2024-02-26T07:57:42;3.70;99.90
52181;DHT22;38158;53.338;6.514;2024-02-26T08:00:08;3.70;99.90
52181;DHT22;38158;53.338;6.514;2024-02-26T08:02:35;3.70;99.90
52181;DHT22;38158;53.338;6.514;2024-02-26T08:05:00;3.70;99.90
52181;DHT22;38158;53.338;6.514;2024-02-26T08:07:26;3.70;99.90
52181;DHT22;38158;53.338;6.514;2024-02-26T08:09:52;3.80;99.90
52181;DHT22;38158;53.338;6.514;2024-02-26T08:12:17;3.80;99.90
52181;DHT22;38158;53.338;6.514;2024-02-26T08:14:43;3.80;99.90
52181;DHT22;38158;53.338;6.514;2024-02-26T08:17:09;3.80;99.90
52181;DHT22;38158;53.338;6.514;2024-02-26T08:19:42;3.80;99.90
52181;DHT22;38158;53.338;6.514;2024-02-26T08:22:10;3.90;99.90
52181;DHT22;38158;53.338;6.514;2024-02-26T08:24:44;3.90;99.90
52181;DHT22;38158;53.338;6.514;2024-02-26T08:27:10;4.00;99.90
52181;DHT22;38158;53.338;6.514;2024-02-26T08:29:36;4.00;99.90
52181;DHT22;38158;53.338;6.514;2024-02-26T08:32:02;4.10;99.90
52181;DHT22;38158;53.338;6.514;2024-02-26T08:34:28;4.10;99.90
52181;DHT22;38158;53.338;6.514;2024-02-26T08:36:53;4.10;99.90
52181;DHT22;38158;53.338;6.514;2024-02-26T08:39:19;4.20;99.90
52181;DHT22;38158;53.338;6.514;2024-02-26T08:41:45;4.20;99.90
52181;DHT22;38158;53.338;6.514;2024-02-26T08:44:18;4.20;99.90
52181;DHT22;38158;53.338;6.514;2024-02-26T08:46:43;5.30;99.90
52181;DHT22;38158;53.338;6.514;2024-02-26T08:49:11;4.60;99.90
52181;DHT22;38158;53.338;6.514;2024-02-26T08:51:41;4.20;99.90
52181;DHT22;38158;53.338;6.514;2024-02-26T08:54:08;4.30;99.90
52181;DHT22;38158;53.338;6.514;2024-02-26T08:56:33;4.30;99.90
52181;DHT22;38158;53.338;6.514;2024-02-26T08:58:59;4.30;99.90
52181;DHT22;38158;53.338;6.514;2024-02-26T09:01:29;4.30;99.90
52181;DHT22;38158;53.338;6.514;2024-02-26T09:03:55;4.40;99.90
52181;DHT22;38158;53.338;6.514;2024-02-26T09:06:22;4.40;99.90
52181;DHT22;38158;53.338;6.514;2024-02-26T09:08:47;4.40;99.90
52181;DHT22;38158;53.338;6.514;2024-02-26T09:11:13;4.40;99.90
52181;DHT22;38158;53.338;6.514;2024-02-26T09:13:39;4.50;99.90
52181;DHT22;38158;53.338;6.514;2024-02-26T09:16:05;4.50;99.90
52181;DHT22;38158;53.338;6.514;2024-02-26T09:18:31;4.60;99.90
52181;DHT22;38158;53.338;6.514;2024-02-26T09:20:57;4.60;99.90
52181;DHT22;38158;53.338;6.514;2024-02-26T09:23:24;4.60;99.90
52181;DHT22;38158;53.338;6.514;2024-02-26T09:25:50;4.60;99.90
52181;DHT22;38158;53.338;6.514;2024-02-26T09:28:16;4.70;99.90
52181;DHT22;38158;53.338;6.514;2024-02-26T09:30:43;4.80;99.90
52181;DHT22;38158;53.338;6.514;2024-02-26T09:33:09;4.80;99.90
52181;DHT22;38158;53.338;6.514;2024-02-26T09:35:35;4.80;99.90
52181;DHT22;38158;53.338;6.514;2024-02-26T09:38:00;4.80;99.90
52181;DHT22;38158;53.338;6.514;2024-02-26T09:40:26;4.90;99.90
52181;DHT22;38158;53.338;6.514;2024-02-26T09:42:59;4.90;99.90
52181;DHT22;38158;53.338;6.514;2024-02-26T09:45:25;4.90;99.90
52181;DHT22;38158;53.338;6.514;2024-02-26T09:47:55;5.00;99.90
52181;DHT22;38158;53.338;6.514;2024-02-26T09:50:21;5.00;99.90
52181;DHT22;38158;53.338;6.514;2024-02-26T09:52:48;5.00;99.90
52181;DHT22;38158;53.338;6.514;2024-02-26T09:55:14;5.70;99.90
52181;DHT22;38158;53.338;6.514;2024-02-26T09:57:45;5.00;99.90
52181;DHT22;38158;53.338;6.514;2024-02-26T10:00:15;6.90;99.90
52181;DHT22;38158;53.338;6.514;2024-02-26T10:02:45;5.10;99.90
52181;DHT22;38158;53.338;6.514;2024-02-26T10:05:12;5.00;99.90
52181;DHT22;38158;53.338;6.514;2024-02-26T10:07:40;5.10;99.90
52181;DHT22;38158;53.338;6.514;2024-02-26T10:10:08;5.10;99.90
52181;DHT22;38158;53.338;6.514;2024-02-26T10:12:34;5.20;99.90
52181;DHT22;38158;53.338;6.514;2024-02-26T10:14:59;5.20;99.90
52181;DHT22;38158;53.338;6.514;2024-02-26T10:17:25;5.20;99.90
52181;DHT22;38158;53.338;6.514;2024-02-26T10:19:52;5.20;99.90
52181;DHT22;38158;53.338;6.514;2024-02-26T10:22:22;5.20;99.90
52181;DHT22;38158;53.338;6.514;2024-02-26T10:24:48;5.20;99.90
52181;DHT22;38158;53.338;6.514;2024-02-26T10:27:14;5.80;99.90
52181;DHT22;38158;53.338;6.514;2024-02-26T10:29:40;5.20;99.90
52181;DHT22;38158;53.338;6.514;2024-02-26T10:32:09;5.70;99.90
52181;DHT22;38158;53.338;6.514;2024-02-26T10:34:35;5.30;99.90
52181;DHT22;38158;53.338;6.514;2024-02-26T10:37:04;5.30;99.90
52181;DHT22;38158;53.338;6.514;2024-02-26T10:39:30;5.30;99.90
52181;DHT22;38158;53.338;6.514;2024-02-26T10:41:55;5.20;99.90
52181;DHT22;38158;53.338;6.514;2024-02-26T10:44:21;5.20;99.90
52181;DHT22;38158;53.338;6.514;2024-02-26T10:46:47;5.20;99.90
52181;DHT22;38158;53.338;6.514;2024-02-26T10:49:16;5.30;99.90
52181;DHT22;38158;53.338;6.514;2024-02-26T10:51:45;5.30;99.90
52181;DHT22;38158;53.338;6.514;2024-02-26T10:54:15;5.50;99.90
52181;DHT22;38158;53.338;6.514;2024-02-26T10:56:42;5.30;99.90
52181;DHT22;38158;53.338;6.514;2024-02-26T10:59:12;5.40;99.90
52181;DHT22;38158;53.338;6.514;2024-02-26T11:01:39;5.30;99.90
52181;DHT22;38158;53.338;6.514;2024-02-26T11:04:08;5.40;99.90
52181;DHT22;38158;53.338;6.514;2024-02-26T11:06:34;5.40;99.90
52181;DHT22;38158;53.338;6.514;2024-02-26T11:09:01;5.40;99.90
52181;DHT22;38158;53.338;6.514;2024-02-26T11:11:28;5.40;99.90
52181;DHT22;38158;53.338;6.514;2024-02-26T11:13:56;5.50;99.90
52181;DHT22;38158;53.338;6.514;2024-02-26T11:16:22;5.50;99.90
52181;DHT22;38158;53.338;6.514;2024-02-26T11:18:48;5.60;99.90
52181;DHT22;38158;53.338;6.514;2024-02-26T11:21:18;5.60;99.90
52181;DHT22;38158;53.338;6.514;2024-02-26T11:23:45;5.70;99.90
52181;DHT22;38158;53.338;6.514;2024-02-26T11:26:13;5.70;99.90
52181;DHT22;38158;53.338;6.514;2024-02-26T11:28:41;6.20;99.90
52181;DHT22;38158;53.338;6.514;2024-02-26T11:31:08;6.30;99.90
52181;DHT22;38158;53.338;6.514;2024-02-26T11:33:34;5.60;99.90
52181;DHT22;38158;53.338;6.514;2024-02-26T11:36:11;5.60;99.90
52181;DHT22;38158;53.338;6.514;2024-02-26T11:38:37;5.60;99.90
52181;DHT22;38158;53.338;6.514;2024-02-26T11:41:05;6.00;99.90
52181;DHT22;38158;53.338;6.514;2024-02-26T11:43:53;5.90;99.90
52181;DHT22;38158;53.338;6.514;2024-02-26T11:46:45;5.50;99.90
52181;DHT22;38158;53.338;6.514;2024-02-26T11:49:30;5.50;99.90
52181;DHT22;38158;53.338;6.514;2024-02-26T11:51:57;5.50;99.90
52181;DHT22;38158;53.338;6.514;2024-02-26T11:54:51;5.50;99.90
52181;DHT22;38158;53.338;6.514;2024-02-26T11:59:50;5.50;99.90
52181;DHT22;38158;53.338;6.514;2024-02-26T12:02:50;6.50;99.90
52181;DHT22;38158;53.338;6.514;2024-02-26T12:05:24;5.40;99.90
52181;DHT22;38158;53.338;6.514;2024-02-26T12:07:55;5.40;99.90
52181;DHT22;38158;53.338;6.514;2024-02-26T12:10:25;5.40;99.90
52181;DHT22;38158;53.338;6.514;2024-02-26T12:13:14;6.20;99.90
52181;DHT22;38158;53.338;6.514;2024-02-26T12:15:43;5.40;99.90
52181;DHT22;38158;53.338;6.514;2024-02-26T12:18:17;5.40;99.90
52181;DHT22;38158;53.338;6.514;2024-02-26T12:20:42;5.40;99.90
52181;DHT22;38158;53.338;6.514;2024-02-26T12:23:14;5.40;99.90
52181;DHT22;38158;53.338;6.514;2024-02-26T12:25:40;5.40;99.90
52181;DHT22;38158;53.338;6.514;2024-02-26T12:28:07;5.40;99.90
52181;DHT22;38158;53.338;6.514;2024-02-26T12:30:32;5.40;99.90
52181;DHT22;38158;53.338;6.514;2024-02-26T12:32:59;5.50;99.90
52181;DHT22;38158;53.338;6.514;2024-02-26T12:35:27;5.50;99.90
52181;DHT22;38158;53.338;6.514;2024-02-26T12:37:56;5.80;99.90
52181;DHT22;38158;53.338;6.514;2024-02-26T12:40:21;6.50;99.90
52181;DHT22;38158;53.338;6.514;2024-02-26T12:42:47;5.50;99.90
52181;DHT22;38158;53.338;6.514;2024-02-26T12:45:14;5.50;99.90
52181;DHT22;38158;53.338;6.514;2024-02-26T12:47:45;5.80;99.90
52181;DHT22;38158;53.338;6.514;2024-02-26T12:50:15;5.50;99.90
52181;DHT22;38158;53.338;6.514;2024-02-26T12:52:45;5.40;99.90
52181;DHT22;38158;53.338;6.514;2024-02-26T12:55:16;5.50;99.90
52181;DHT22;38158;53.338;6.514;2024-02-26T12:57:44;5.50;99.90
52181;DHT22;38158;53.338;6.514;2024-02-26T13:00:12;5.50;99.90
52181;DHT22;38158;53.338;6.514;2024-02-26T13:02:40;5.50;99.90
52181;DHT22;38158;53.338;6.514;2024-02-26T13:05:08;5.50;99.90
52181;DHT22;38158;53.338;6.514;2024-02-26T13:07:35;5.40;99.90
52181;DHT22;38158;53.338;6.514;2024-02-26T13:10:06;6.20;99.90
52181;DHT22;38158;53.338;6.514;2024-02-26T13:12:32;5.40;99.90
52181;DHT22;38158;53.338;6.514;2024-02-26T13:15:04;5.40;99.90
52181;DHT22;38158;53.338;6.514;2024-02-26T13:17:33;5.40;99.90
52181;DHT22;38158;53.338;6.514;2024-02-26T13:19:59;5.40;99.90
52181;DHT22;38158;53.338;6.514;2024-02-26T13:22:25;5.30;99.90
52181;DHT22;38158;53.338;6.514;2024-02-26T13:24:57;5.30;99.90
52181;DHT22;38158;53.338;6.514;2024-02-26T13:27:23;5.30;99.90
52181;DHT22;38158;53.338;6.514;2024-02-26T13:30:11;5.30;99.90
52181;DHT22;38158;53.338;6.514;2024-02-26T13:32:39;5.30;99.90
52181;DHT22;38158;53.338;6.514;2024-02-26T13:35:13;5.30;99.90
52181;DHT22;38158;53.338;6.514;2024-02-26T13:37:40;5.20;99.90
52181;DHT22;38158;53.338;6.514;2024-02-26T13:40:07;5.20;99.90
52181;DHT22;38158;53.338;6.514;2024-02-26T13:42:34;5.20;99.90
52181;DHT22;38158;53.338;6.514;2024-02-26T13:45:00;5.20;99.90
52181;DHT22;38158;53.338;6.514;2024-02-26T13:47:25;5.20;99.90
52181;DHT22;38158;53.338;6.514;2024-02-26T13:49:51;5.30;99.90
52181;DHT22;38158;53.338;6.514;2024-02-26T13:52:17;7.50;99.90
52181;DHT22;38158;53.338;6.514;2024-02-26T13:54:43;5.20;99.90
52181;DHT22;38158;53.338;6.514;2024-02-26T13:57:08;5.20;99.90
52181;DHT22;38158;53.338;6.514;2024-02-26T13:59:34;5.30;99.90
52181;DHT22;38158;53.338;6.514;2024-02-26T14:02:00;5.20;99.90
52181;DHT22;38158;53.338;6.514;2024-02-26T14:04:26;5.30;99.90
52181;DHT22;38158;53.338;6.514;2024-02-26T14:06:52;5.30;99.90
52181;DHT22;38158;53.338;6.514;2024-02-26T14:09:17;5.20;99.90
52181;DHT22;38158;53.338;6.514;2024-02-26T14:11:48;5.30;99.90
52181;DHT22;38158;53.338;6.514;2024-02-26T14:14:13;6.00;99.90
52181;DHT22;38158;53.338;6.514;2024-02-26T14:16:39;5.30;99.90
52181;DHT22;38158;53.338;6.514;2024-02-26T14:19:05;5.30;99.90
52181;DHT22;38158;53.338;6.514;2024-02-26T14:21:30;5.30;99.90
52181;DHT22;38158;53.338;6.514;2024-02-26T14:23:56;5.30;99.90
52181;DHT22;38158;53.338;6.514;2024-02-26T14:26:25;5.30;99.90
52181;DHT22;38158;53.338;6.514;2024-02-26T14:28:50;5.30;99.90
52181;DHT22;38158;53.338;6.514;2024-02-26T14:31:19;5.30;99.90
52181;DHT22;38158;53.338;6.514;2024-02-26T14:33:45;5.30;99.90
52181;DHT22;38158;53.338;6.514;2024-02-26T14:36:10;6.50;99.90
52181;DHT22;38158;53.338;6.514;2024-02-26T14:38:37;5.30;99.90
52181;DHT22;38158;53.338;6.514;2024-02-26T14:41:04;5.30;99.90
52181;DHT22;38158;53.338;6.514;2024-02-26T14:43:30;5.60;99.90
52181;DHT22;38158;53.338;6.514;2024-02-26T14:45:57;5.30;99.90
52181;DHT22;38158;53.338;6.514;2024-02-26T14:48:22;5.30;99.90
52181;DHT22;38158;53.338;6.514;2024-02-26T14:50:50;5.30;99.90
52181;DHT22;38158;53.338;6.514;2024-02-26T14:53:16;5.20;99.90
52181;DHT22;38158;53.338;6.514;2024-02-26T14:55:42;5.20;99.90
52181;DHT22;38158;53.338;6.514;2024-02-26T14:58:08;5.40;99.90
52181;DHT22;38158;53.338;6.514;2024-02-26T15:00:36;5.20;99.90
52181;DHT22;38158;53.338;6.514;2024-02-26T15:03:03;5.20;99.90
52181;DHT22;38158;53.338;6.514;2024-02-26T15:05:29;5.20;99.90
52181;DHT22;38158;53.338;6.514;2024-02-26T15:07:54;5.20;99.90
52181;DHT22;38158;53.338;6.514;2024-02-26T15:10:20;6.70;99.90
52181;DHT22;38158;53.338;6.514;2024-02-26T15:12:46;5.10;99.90
52181;DHT22;38158;53.338;6.514;2024-02-26T15:15:12;5.10;99.90
52181;DHT22;38158;53.338;6.514;2024-02-26T15:17:38;5.10;99.90
52181;DHT22;38158;53.338;6.514;2024-02-26T15:20:04;5.10;99.90
52181;DHT22;38158;53.338;6.514;2024-02-26T15:22:33;5.10;99.90
52181;DHT22;38158;53.338;6.514;2024-02-26T15:24:59;5.10;99.90
52181;DHT22;38158;53.338;6.514;2024-02-26T15:27:25;5.10;99.90
52181;DHT22;38158;53.338;6.514;2024-02-26T15:29:50;5.70;99.90
52181;DHT22;38158;53.338;6.514;2024-02-26T15:32:24;5.10;99.90
52181;DHT22;38158;53.338;6.514;2024-02-26T15:34:50;5.10;99.90
52181;DHT22;38158;53.338;6.514;2024-02-26T15:37:16;5.10;99.90
52181;DHT22;38158;53.338;6.514;2024-02-26T15:39:42;5.10;99.90
52181;DHT22;38158;53.338;6.514;2024-02-26T15:42:07;5.10;99.90
52181;DHT22;38158;53.338;6.514;2024-02-26T15:44:33;5.60;99.90
52181;DHT22;38158;53.338;6.514;2024-02-26T15:46:58;5.00;99.90